createdAt,value
2022-09-20T00:01:49.024Z,1.50
2022-09-20T00:04:17.621Z,1.77
2022-09-20T00:06:48.770Z,1.65
2022-09-20T00:09:17.426Z,1.67
2022-09-20T00:11:46.303Z,1.77
2022-09-20T00:14:15.039Z,1.38
2022-09-20T00:16:45.101Z,2.05
2022-09-20T00:19:19.782Z,1.77
2022-09-20T00:21:49.172Z,1.83
2022-09-20T00:24:18.197Z,1.70
2022-09-20T00:26:46.804Z,1.73
2022-09-20T00:29:15.524Z,1.77
2022-09-20T00:31:45.665Z,1.90
2022-09-20T00:34:34.182Z,1.77
2022-09-20T00:37:02.887Z,1.88
2022-09-20T00:39:31.581Z,2.28
2022-09-20T00:42:02.458Z,2.53
2022-09-20T00:44:54.993Z,2.47
2022-09-20T00:47:30.592Z,1.77
2022-09-20T00:50:03.440Z,1.73
2022-09-20T00:52:32.805Z,2.08
2022-09-20T00:55:02.811Z,2.95
2022-09-20T00:57:35.407Z,1.70
2022-09-20T01:04:28.302Z,2.72
2022-09-20T01:07:00.612Z,1.60
2022-09-20T01:09:31.388Z,2.65
2022-09-20T01:12:05.143Z,1.83
2022-09-20T01:14:35.213Z,1.60
2022-09-20T01:17:06.557Z,2.10
2022-09-20T01:19:57.532Z,1.85
2022-09-20T01:22:31.029Z,1.52
2022-09-20T01:25:08.359Z,1.75
2022-09-20T01:27:46.872Z,1.30
2022-09-20T01:30:19.784Z,2.08
2022-09-20T01:33:08.569Z,1.67
2022-09-20T01:35:38.407Z,2.13
2022-09-20T01:38:24.920Z,1.80
2022-09-20T01:41:04.205Z,2.10
2022-09-20T01:43:38.617Z,2.00
2022-09-20T01:46:21.657Z,1.30
2022-09-20T01:48:57.443Z,3.33
2022-09-20T01:52:16.891Z,1.73
2022-09-20T01:55:05.653Z,2.03
2022-09-20T01:57:59.737Z,2.88
2022-09-20T02:03:37.347Z,1.92
2022-09-20T02:09:09.342Z,2.03
2022-09-20T02:11:54.236Z,2.08
2022-09-20T02:14:46.950Z,3.35
2022-09-20T02:17:29.002Z,1.80
2022-09-20T02:20:21.072Z,2.40
2022-09-20T02:23:12.977Z,2.17
2022-09-20T02:26:06.402Z,2.22
2022-09-20T02:28:53.618Z,2.10
2022-09-20T02:31:51.476Z,1.67
2022-09-20T02:34:38.447Z,1.75
2022-09-20T02:37:22.558Z,2.28
2022-09-20T02:40:07.152Z,1.70
2022-09-20T02:42:42.496Z,2.45
2022-09-20T02:45:23.898Z,2.00
2022-09-20T02:47:55.061Z,1.77
2022-09-20T02:50:33.538Z,1.98
2022-09-20T02:53:12.452Z,1.60
2022-09-20T02:55:49.048Z,2.28
2022-09-20T02:58:36.366Z,2.95
2022-09-20T03:01:14.322Z,2.50
2022-09-20T03:03:53.139Z,1.48
2022-09-20T03:06:34.439Z,1.33
2022-09-20T03:09:12.435Z,2.05
2022-09-20T03:11:52.646Z,1.75
2022-09-20T03:14:27.645Z,1.65
2022-09-20T03:17:13.070Z,2.28
2022-09-20T03:20:04.943Z,1.25
2022-09-20T03:22:46.134Z,2.00
2022-09-20T03:25:51.275Z,2.08
2022-09-20T03:28:39.672Z,2.92
2022-09-20T03:31:20.965Z,2.05
2022-09-20T03:34:01.186Z,1.85
2022-09-20T03:36:48.418Z,2.13
2022-09-20T03:39:48.629Z,1.77
2022-09-20T03:42:20.675Z,1.73
2022-09-20T03:45:22.097Z,2.10
2022-09-20T03:48:13.014Z,1.90
2022-09-20T03:50:52.646Z,2.03
2022-09-20T03:54:01.076Z,2.13
2022-09-20T03:57:18.442Z,1.65
2022-09-20T04:00:03.314Z,2.20
2022-09-20T04:03:01.955Z,2.15
2022-09-20T04:05:39.839Z,2.05
2022-09-20T04:08:17.566Z,2.40
2022-09-20T04:10:59.897Z,2.67
2022-09-20T04:13:37.396Z,2.63
2022-09-20T04:16:18.507Z,3.10
2022-09-20T04:18:53.067Z,2.75
2022-09-20T04:21:29.897Z,3.05
2022-09-20T04:24:05.136Z,2.45
2022-09-20T04:26:37.827Z,3.10
2022-09-20T04:29:28.912Z,3.25
2022-09-20T04:32:04.882Z,3.33
2022-09-20T04:34:57.381Z,2.53
2022-09-20T04:37:33.062Z,3.47
2022-09-20T04:40:16.569Z,2.45
2022-09-20T04:46:03.111Z,2.10
2022-09-20T04:49:07.665Z,2.33
2022-09-20T04:52:09.140Z,2.65
2022-09-20T04:55:10.298Z,2.45
2022-09-20T04:58:12.004Z,2.97
2022-09-20T05:01:01.225Z,2.03
2022-09-20T05:03:59.645Z,2.65
2022-09-20T05:06:58.478Z,2.00
2022-09-20T05:09:45.497Z,2.38
2022-09-20T05:12:39.498Z,2.53
2022-09-20T05:15:35.488Z,1.85
2022-09-20T05:18:37.817Z,1.92
2022-09-20T05:21:23.217Z,2.65
2022-09-20T05:24:10.776Z,2.03
2022-09-20T05:26:56.911Z,1.85
2022-09-20T05:29:32.841Z,3.45
2022-09-20T05:32:13.810Z,3.33
2022-09-20T05:34:52.321Z,3.30
2022-09-20T05:37:36.857Z,2.03
2022-09-20T05:40:29.152Z,2.50
2022-09-20T05:43:07.530Z,2.42
2022-09-20T05:45:53.061Z,2.40
2022-09-20T05:48:32.227Z,2.45
2022-09-20T05:51:10.201Z,2.60
2022-09-20T05:54:17.979Z,2.47
2022-09-20T05:56:54.800Z,3.17
2022-09-20T05:59:38.184Z,2.75
2022-09-20T06:02:22.820Z,2.15
2022-09-20T06:05:01.423Z,2.55
2022-09-20T06:07:49.011Z,2.60
2022-09-20T06:10:33.581Z,2.45
2022-09-20T06:13:13.056Z,2.97
2022-09-20T06:15:50.842Z,2.58
2022-09-20T06:18:27.220Z,3.45
2022-09-20T06:21:10.196Z,2.42
2022-09-20T06:23:39.276Z,2.00
2022-09-20T06:26:17.411Z,2.33
2022-09-20T06:28:55.219Z,2.33
2022-09-20T06:31:27.515Z,3.05
2022-09-20T06:34:00.249Z,2.58
2022-09-20T06:36:50.713Z,3.30
2022-09-20T06:39:46.742Z,3.67
2022-09-20T06:42:22.439Z,2.65
2022-09-20T06:44:53.535Z,2.88
2022-09-20T06:47:23.425Z,2.78
2022-09-20T06:49:52.181Z,2.45
2022-09-20T06:52:22.946Z,2.20
2022-09-20T06:54:55.142Z,2.80
2022-09-20T06:57:32.434Z,1.92
2022-09-20T07:00:02.424Z,2.00
2022-09-20T07:02:31.258Z,2.50
2022-09-20T07:05:00.511Z,2.40
2022-09-20T07:07:29.269Z,1.83
2022-09-20T07:09:58.940Z,1.75
2022-09-20T07:12:33.660Z,1.92
2022-09-20T07:15:02.667Z,2.08
2022-09-20T07:17:31.496Z,1.77
2022-09-20T07:20:00.636Z,2.03
2022-09-20T07:22:31.245Z,1.90
2022-09-20T07:25:02.578Z,1.48
2022-09-20T07:27:32.803Z,1.50
2022-09-20T07:30:02.756Z,1.45
2022-09-20T07:32:31.696Z,1.50
2022-09-20T07:35:02.047Z,1.52
2022-09-20T07:37:35.028Z,2.50
2022-09-20T07:40:07.204Z,2.13
2022-09-20T07:42:38.228Z,2.53
2022-09-20T07:45:08.269Z,1.40
2022-09-20T07:47:41.231Z,2.10
2022-09-20T07:52:40.585Z,2.10
2022-09-20T07:55:11.603Z,2.42
2022-09-20T07:57:42.887Z,1.90
2022-09-20T08:00:13.534Z,2.35
2022-09-20T08:02:44.654Z,1.85
2022-09-20T08:05:13.798Z,1.70
2022-09-20T08:07:42.672Z,1.70
2022-09-20T08:10:14.323Z,2.95
2022-09-20T08:15:36.051Z,2.53
2022-09-20T08:18:10.086Z,2.00
2022-09-20T08:20:40.032Z,2.00
2022-09-20T08:23:22.877Z,1.30
2022-09-20T08:25:52.308Z,2.05
2022-09-20T08:28:22.305Z,1.10
2022-09-20T08:30:51.240Z,1.45
2022-09-20T08:33:22.616Z,1.42
2022-09-20T08:35:57.555Z,1.92
2022-09-20T08:41:23.875Z,1.45
2022-09-20T08:43:57.827Z,1.65
2022-09-20T08:46:30.094Z,1.65
2022-09-20T08:48:59.924Z,2.20
2022-09-20T08:51:33.282Z,1.20
2022-09-20T08:54:04.798Z,1.55
2022-09-20T08:56:38.382Z,1.85
2022-09-20T08:59:17.399Z,1.42
2022-09-20T09:01:47.550Z,2.47
2022-09-20T09:04:18.215Z,1.65
2022-09-20T09:06:49.185Z,1.65
2022-09-20T09:09:20.911Z,2.45
2022-09-20T09:11:50.252Z,1.70
2022-09-20T09:14:44.287Z,2.35
2022-09-20T09:17:15.906Z,2.25
2022-09-20T09:19:47.180Z,1.75
2022-09-20T09:22:21.842Z,2.03
2022-09-20T09:25:20.567Z,1.35
2022-09-20T09:27:55.031Z,1.40
2022-09-20T09:30:27.615Z,1.83
2022-09-20T09:33:28.149Z,1.67
2022-09-20T09:36:00.194Z,1.50
2022-09-20T09:38:31.810Z,2.25
2022-09-20T09:41:03.096Z,1.48
2022-09-20T09:43:35.437Z,1.40
2022-09-20T09:46:21.485Z,1.60
2022-09-20T09:49:10.405Z,1.23
2022-09-20T09:51:43.183Z,0.90
2022-09-20T09:54:19.764Z,1.52
2022-09-20T09:57:03.423Z,0.80
2022-09-20T09:59:52.888Z,0.80
2022-09-20T10:02:54.205Z,0.85
2022-09-20T10:05:28.919Z,1.05
2022-09-20T10:08:11.833Z,1.73
2022-09-20T10:10:59.615Z,1.17
2022-09-20T10:13:40.785Z,0.90
2022-09-20T10:16:19.819Z,0.85
2022-09-20T10:19:00.646Z,0.85
2022-09-20T10:21:41.402Z,1.55
2022-09-20T10:24:30.546Z,1.52
2022-09-20T10:27:23.791Z,1.13
2022-09-20T10:30:03.990Z,1.02
2022-09-20T10:32:49.906Z,1.60
2022-09-20T10:35:30.473Z,0.90
2022-09-20T10:38:13.453Z,0.70
2022-09-20T10:41:06.498Z,0.73
2022-09-20T10:43:52.987Z,1.00
2022-09-20T10:46:33.376Z,0.93
2022-09-20T10:49:08.669Z,0.90
2022-09-20T10:51:47.926Z,0.77
2022-09-20T10:54:30.531Z,0.63
2022-09-20T10:57:12.388Z,0.95
2022-09-20T10:59:51.327Z,0.73
2022-09-20T11:02:44.170Z,1.35
2022-09-20T11:05:31.769Z,1.05
2022-09-20T11:08:11.967Z,0.35
2022-09-20T11:10:47.986Z,0.95
2022-09-20T11:13:25.959Z,0.63
2022-09-20T11:16:00.942Z,0.70
2022-09-20T11:18:35.730Z,0.40
2022-09-20T11:21:09.539Z,0.52
2022-09-20T11:23:51.216Z,0.50
2022-09-20T11:26:28.810Z,0.75
2022-09-20T11:29:02.794Z,1.00
2022-09-20T11:31:36.398Z,1.10
2022-09-20T11:34:15.477Z,1.77
2022-09-20T11:36:52.402Z,1.00
2022-09-20T11:39:29.014Z,1.08
2022-09-20T11:42:01.112Z,1.20
2022-09-20T11:44:31.158Z,0.70
2022-09-20T11:47:04.980Z,1.52
2022-09-20T11:49:46.224Z,1.08
2022-09-20T11:52:35.885Z,0.93
2022-09-20T11:55:25.556Z,2.20
2022-09-20T11:58:03.398Z,0.52
2022-09-20T12:00:35.307Z,1.55
2022-09-20T12:03:20.352Z,0.80
2022-09-20T12:05:58.839Z,0.82
2022-09-20T12:08:31.858Z,1.90
2022-09-20T12:11:05.644Z,0.80
2022-09-20T12:13:39.270Z,1.73
2022-09-20T12:16:14.190Z,1.42
2022-09-20T12:19:03.575Z,0.90
2022-09-20T12:21:32.270Z,1.00
2022-09-20T12:24:18.292Z,0.80
2022-09-20T12:26:49.587Z,1.00
2022-09-20T12:30:16.070Z,0.82
2022-09-20T12:32:52.291Z,1.05
2022-09-20T12:36:01.400Z,1.02
2022-09-20T12:38:39.789Z,1.10
2022-09-20T12:41:14.733Z,1.80
2022-09-20T12:43:56.378Z,0.80
2022-09-20T12:46:34.005Z,0.82
2022-09-20T12:49:52.321Z,0.60
2022-09-20T12:52:53.849Z,0.80
2022-09-20T12:55:55.047Z,1.00
2022-09-20T12:58:28.710Z,0.77
2022-09-20T13:01:30.534Z,1.00
2022-09-20T13:04:45.303Z,0.90
2022-09-20T13:07:43.733Z,1.13
2022-09-20T13:10:27.540Z,1.25
2022-09-20T13:13:04.661Z,0.60
2022-09-20T13:15:35.008Z,1.00
2022-09-20T13:18:07.042Z,0.52
2022-09-20T13:20:36.877Z,0.43
2022-09-20T13:23:06.696Z,1.02
2022-09-20T13:25:40.253Z,1.05
2022-09-20T13:28:23.079Z,0.70
2022-09-20T13:31:12.874Z,0.40
2022-09-20T13:33:45.289Z,0.55
2022-09-20T13:36:15.491Z,0.93
2022-09-20T13:38:45.652Z,0.55
2022-09-20T13:41:14.784Z,0.63
2022-09-20T13:43:45.460Z,0.40
2022-09-20T13:46:17.562Z,0.90
2022-09-20T13:48:49.991Z,0.57
2022-09-20T13:51:21.048Z,0.73
2022-09-20T13:53:50.431Z,0.80
2022-09-20T13:56:22.951Z,0.60
2022-09-20T13:58:53.841Z,0.65
2022-09-20T14:01:28.642Z,0.68
2022-09-20T14:04:07.044Z,1.23
2022-09-20T14:06:37.251Z,0.70
2022-09-20T14:09:11.337Z,1.25
2022-09-20T14:11:43.991Z,0.65
2022-09-20T14:14:19.874Z,0.95
2022-09-20T14:16:51.747Z,0.60
2022-09-20T14:19:26.935Z,0.82
2022-09-20T14:21:57.894Z,0.70
2022-09-20T14:24:31.936Z,1.23
2022-09-20T14:27:21.221Z,0.63
2022-09-20T14:29:51.826Z,0.60
2022-09-20T14:32:38.646Z,0.77
2022-09-20T14:35:19.206Z,0.77
2022-09-20T14:37:51.126Z,0.95
2022-09-20T14:40:24.906Z,0.63
2022-09-20T14:42:59.170Z,0.63
2022-09-20T14:45:31.894Z,1.20
2022-09-20T14:48:09.601Z,0.40
2022-09-20T14:50:43.403Z,0.80
2022-09-20T14:53:28.041Z,0.75
2022-09-20T14:56:09.018Z,0.98
2022-09-20T14:59:04.885Z,0.98
2022-09-20T15:01:35.620Z,0.98
2022-09-20T15:04:10.164Z,0.98
2022-09-20T15:06:40.792Z,0.63
2022-09-20T15:09:14.239Z,1.00
2022-09-20T15:11:43.703Z,0.90
2022-09-20T15:14:13.970Z,0.70
2022-09-20T15:16:43.805Z,0.93
2022-09-20T15:19:13.002Z,0.80
2022-09-20T15:21:43.325Z,0.68
2022-09-20T15:24:17.893Z,0.70
2022-09-20T15:26:53.197Z,0.57
2022-09-20T15:29:22.866Z,0.52
2022-09-20T15:31:52.793Z,1.15
2022-09-20T15:34:22.521Z,1.67
2022-09-20T15:36:54.042Z,0.82
2022-09-20T15:39:23.738Z,0.40
2022-09-20T15:41:53.753Z,0.80
2022-09-20T15:44:24.937Z,0.60
2022-09-20T15:46:54.032Z,0.60
2022-09-20T15:49:23.085Z,0.82
2022-09-20T15:51:53.137Z,1.63
2022-09-20T15:54:22.162Z,1.33
2022-09-20T15:56:53.384Z,1.05
2022-09-20T15:59:23.284Z,1.83
2022-09-20T16:01:51.983Z,0.80
2022-09-20T16:04:21.703Z,0.90
2022-09-20T16:06:52.906Z,1.08
2022-09-20T16:09:21.831Z,1.45
2022-09-20T16:11:50.586Z,0.80
2022-09-20T16:14:21.962Z,1.60
2022-09-20T16:16:50.632Z,1.48
2022-09-20T16:19:20.558Z,0.73
2022-09-20T16:21:56.609Z,1.02
2022-09-20T16:24:29.614Z,0.90
2022-09-20T16:26:59.147Z,0.80
2022-09-20T16:29:29.467Z,1.42
2022-09-20T16:31:59.737Z,1.00
2022-09-20T16:34:31.453Z,0.80
2022-09-20T16:37:01.798Z,1.00
2022-09-20T16:39:32.704Z,5.25
2022-09-20T16:42:04.550Z,13.23
2022-09-20T16:44:34.128Z,8.45
2022-09-20T16:47:03.428Z,1.50
2022-09-20T16:49:32.033Z,1.42
2022-09-20T16:52:01.430Z,1.27
2022-09-20T16:54:32.137Z,1.52
2022-09-20T16:57:02.864Z,0.88
2022-09-20T16:59:31.749Z,1.15
2022-09-20T17:02:02.942Z,1.10
2022-09-20T17:04:34.191Z,1.05
2022-09-20T17:07:03.302Z,1.85
2022-09-20T17:09:32.473Z,1.50
2022-09-20T17:12:04.336Z,1.20
2022-09-20T17:14:33.407Z,1.02
2022-09-20T17:17:02.106Z,1.38
2022-09-20T17:19:36.056Z,1.42
2022-09-20T17:22:09.236Z,1.05
2022-09-20T17:24:40.547Z,1.58
2022-09-20T17:27:10.875Z,1.20
2022-09-20T17:29:42.559Z,1.10
2022-09-20T17:32:13.411Z,1.75
2022-09-20T17:34:42.147Z,0.70
2022-09-20T17:37:10.825Z,0.98
2022-09-20T17:39:40.850Z,1.00
2022-09-20T17:42:12.884Z,1.65
2022-09-20T17:44:44.005Z,1.05
2022-09-20T17:47:12.676Z,1.33
2022-09-20T17:49:41.566Z,1.30
2022-09-20T17:52:11.263Z,2.15
2022-09-20T17:54:40.173Z,2.05
2022-09-20T17:57:14.605Z,1.10
2022-09-20T17:59:45.674Z,1.33
2022-09-20T18:02:14.490Z,1.60
2022-09-20T18:04:44.357Z,1.25
2022-09-20T18:07:18.454Z,1.45
2022-09-20T18:09:47.271Z,2.30
2022-09-20T18:12:21.625Z,2.05
2022-09-20T18:14:50.532Z,1.95
2022-09-20T18:17:21.926Z,1.38
2022-09-20T18:19:52.938Z,1.58
2022-09-20T18:22:27.167Z,2.58
2022-09-20T18:24:58.371Z,1.67
2022-09-20T18:27:29.484Z,1.08
2022-09-20T18:29:58.128Z,1.05
2022-09-20T18:32:30.615Z,2.53
2022-09-20T18:34:59.350Z,1.20
2022-09-20T18:37:28.464Z,1.00
2022-09-20T18:39:57.026Z,1.85
2022-09-20T18:42:31.081Z,1.70
2022-09-20T18:45:00.298Z,1.45
2022-09-20T18:47:30.430Z,1.38
2022-09-20T18:49:59.860Z,1.60
2022-09-20T18:52:29.751Z,1.27
2022-09-20T18:54:58.727Z,1.17
2022-09-20T18:57:31.678Z,1.48
2022-09-20T19:00:03.704Z,1.90
2022-09-20T19:02:57.685Z,2.08
2022-09-20T19:05:34.823Z,2.17
2022-09-20T19:08:18.104Z,1.85
2022-09-20T19:10:53.330Z,1.80
2022-09-20T19:13:39.287Z,1.40
2022-09-20T19:16:20.547Z,1.52
2022-09-20T19:19:08.177Z,1.85
2022-09-20T19:21:45.161Z,2.33
2022-09-20T19:24:29.144Z,1.70
2022-09-20T19:27:01.349Z,1.50
2022-09-20T19:29:33.307Z,1.77
2022-09-20T19:32:02.932Z,1.70
2022-09-20T19:34:34.553Z,1.50
2022-09-20T19:37:18.661Z,1.27
2022-09-20T19:40:09.861Z,2.00
2022-09-20T19:42:48.342Z,1.58
2022-09-20T19:45:29.073Z,2.92
2022-09-20T19:48:07.454Z,1.35
2022-09-20T19:50:45.482Z,1.38
2022-09-20T19:53:19.462Z,1.75
2022-09-20T19:55:51.405Z,2.35
2022-09-20T19:58:21.093Z,10.07
2022-09-20T20:00:51.891Z,19.73
2022-09-20T20:03:26.255Z,11.02
2022-09-20T20:06:07.092Z,8.27
2022-09-20T20:08:43.231Z,5.55
2022-09-20T20:11:22.019Z,3.15
2022-09-20T20:14:04.188Z,2.38
2022-09-20T20:16:48.257Z,2.15
2022-09-20T20:19:43.107Z,1.52
2022-09-20T20:22:23.880Z,1.20
2022-09-20T20:24:53.746Z,1.60
2022-09-20T20:27:22.741Z,1.88
2022-09-20T20:29:51.424Z,1.58
2022-09-20T20:32:21.860Z,1.40
2022-09-20T20:38:37.750Z,1.60
2022-09-20T20:41:09.676Z,2.17
2022-09-20T20:43:40.790Z,2.10
2022-09-20T20:46:15.590Z,3.03
2022-09-20T20:48:48.373Z,2.47
2022-09-20T20:51:21.582Z,2.20
2022-09-20T20:53:51.606Z,2.35
2022-09-20T20:56:22.139Z,3.88
2022-09-20T20:58:50.791Z,3.20
2022-09-20T21:01:24.149Z,2.92
2022-09-20T21:03:58.078Z,2.30
2022-09-20T21:06:31.938Z,2.47
2022-09-20T21:09:03.939Z,2.05
2022-09-20T21:11:34.669Z,3.13
2022-09-20T21:14:08.252Z,3.47
2022-09-20T21:16:38.912Z,2.47
2022-09-20T21:19:10.723Z,2.13
2022-09-20T21:21:42.239Z,2.38
2022-09-20T21:24:13.098Z,2.50
2022-09-20T21:26:42.642Z,2.50
2022-09-20T21:29:13.348Z,2.50
2022-09-20T21:31:43.633Z,2.35
2022-09-20T21:34:15.722Z,2.42
2022-09-20T21:36:45.203Z,2.88
2022-09-20T21:39:14.754Z,2.05
2022-09-20T21:41:43.572Z,2.35
2022-09-20T21:44:12.528Z,2.33
2022-09-20T21:46:42.579Z,2.80
2022-09-20T21:49:14.337Z,3.15
2022-09-20T21:51:47.106Z,2.50
2022-09-20T21:54:16.167Z,2.13
2022-09-20T21:56:45.538Z,1.80
2022-09-20T21:59:14.984Z,3.05
2022-09-20T22:01:43.737Z,1.80
2022-09-20T22:04:13.475Z,1.23
2022-09-20T22:06:47.445Z,1.52
2022-09-20T22:09:17.763Z,2.20
2022-09-20T22:11:50.163Z,2.05
2022-09-20T22:14:20.723Z,1.83
2022-09-20T22:16:53.089Z,1.55
2022-09-20T22:19:22.096Z,1.55
2022-09-20T22:21:57.838Z,1.42
2022-09-20T22:24:27.578Z,1.50
2022-09-20T22:26:57.456Z,1.60
2022-09-20T22:29:30.926Z,1.83
2022-09-20T22:32:00.109Z,4.28
2022-09-20T22:34:29.771Z,2.40
2022-09-20T22:37:03.729Z,3.38
2022-09-20T22:39:35.397Z,3.03
2022-09-20T22:42:04.894Z,3.15
2022-09-20T22:44:34.375Z,3.50
2022-09-20T22:47:06.638Z,2.92
2022-09-20T22:49:36.124Z,3.38
2022-09-20T22:52:06.940Z,3.80
2022-09-20T22:54:36.440Z,3.38
2022-09-20T22:57:08.052Z,4.15
2022-09-20T22:59:40.608Z,3.75
2022-09-20T23:02:09.856Z,3.47
2022-09-20T23:04:39.178Z,2.92
2022-09-20T23:07:09.898Z,3.55
2022-09-20T23:09:41.348Z,4.38
2022-09-20T23:12:10.725Z,3.38
2022-09-20T23:14:42.468Z,3.78
2022-09-20T23:17:11.918Z,3.53
2022-09-20T23:19:41.328Z,3.30
2022-09-20T23:22:13.263Z,4.10
2022-09-20T23:24:42.690Z,3.75
2022-09-20T23:27:15.625Z,3.13
2022-09-20T23:29:45.666Z,2.90
2022-09-20T23:32:14.817Z,3.38
2022-09-20T23:34:46.576Z,3.75
2022-09-20T23:37:17.335Z,3.90
2022-09-20T23:39:47.054Z,3.10
2022-09-20T23:42:16.597Z,3.00
2022-09-20T23:44:45.851Z,3.17
2022-09-20T23:47:15.473Z,3.83
2022-09-20T23:49:47.736Z,3.10
2022-09-20T23:52:18.631Z,5.13
2022-09-20T23:54:50.126Z,3.85
2022-09-20T23:57:19.491Z,4.55
2022-09-20T23:59:51.177Z,3.95
